createdAt,value
2023-02-19T00:01:53.442Z,99460.00
2023-02-19T00:04:23.628Z,99458.00
2023-02-19T00:06:51.963Z,99455.00
2023-02-19T00:09:21.539Z,99461.00
2023-02-19T00:11:50.999Z,99448.00
2023-02-19T00:14:21.814Z,99452.00
2023-02-19T00:16:50.074Z,99440.00
2023-02-19T00:19:21.006Z,99442.00
2023-02-19T00:21:51.527Z,99434.00
2023-02-19T00:24:20.520Z,99433.00
2023-02-19T00:26:50.205Z,99434.00
2023-02-19T00:29:21.238Z,99425.00
2023-02-19T00:31:49.821Z,99429.00
2023-02-19T00:34:17.816Z,99426.00
2023-02-19T00:36:45.867Z,99419.00
2023-02-19T00:39:18.244Z,99413.00
2023-02-19T00:41:46.443Z,99413.00
2023-02-19T00:44:16.434Z,99408.00
2023-02-19T00:46:47.513Z,99400.00
2023-02-19T00:49:19.700Z,99391.00
2023-02-19T00:51:48.527Z,99397.00
2023-02-19T00:54:17.403Z,99391.00
2023-02-19T00:56:45.574Z,99386.00
2023-02-19T00:59:16.691Z,99369.00
2023-02-19T01:01:45.557Z,99372.00
2023-02-19T01:04:13.773Z,99368.00
2023-02-19T01:06:42.160Z,99368.00
2023-02-19T01:09:10.029Z,99369.00
2023-02-19T01:11:37.952Z,99360.00
2023-02-19T01:14:06.208Z,99359.00
2023-02-19T01:16:35.366Z,99360.00
2023-02-19T01:19:03.352Z,99355.00
2023-02-19T01:21:32.471Z,99339.00
2023-02-19T01:24:00.860Z,99334.00
2023-02-19T01:26:33.294Z,99339.00
2023-02-19T01:29:02.608Z,99335.00
2023-02-19T01:31:31.546Z,99335.00
2023-02-19T01:34:04.079Z,99333.00
2023-02-19T01:36:35.141Z,99328.00
2023-02-19T01:39:05.056Z,99327.00
2023-02-19T01:41:36.682Z,99329.00
2023-02-19T01:44:08.749Z,99330.00
2023-02-19T01:46:39.473Z,99322.00
2023-02-19T01:49:12.532Z,99328.00
2023-02-19T01:51:45.652Z,99324.00
2023-02-19T01:54:18.006Z,99328.00
2023-02-19T01:56:49.659Z,99322.00
2023-02-19T01:59:19.359Z,99314.00
2023-02-19T02:01:47.540Z,99308.00
2023-02-19T02:04:18.292Z,99306.00
2023-02-19T02:06:52.320Z,99300.00
2023-02-19T02:09:40.236Z,99291.00
2023-02-19T02:12:08.830Z,99298.00
2023-02-19T02:14:41.018Z,99295.00
2023-02-19T02:17:21.475Z,99287.00
2023-02-19T02:20:16.072Z,99287.00
2023-02-19T02:22:52.170Z,99278.00
2023-02-19T02:25:52.036Z,99282.00
2023-02-19T02:28:48.114Z,99283.00
2023-02-19T02:31:23.953Z,99263.00
2023-02-19T02:34:01.532Z,99256.00
2023-02-19T02:36:36.526Z,99252.00
2023-02-19T02:39:10.199Z,99244.00
2023-02-19T02:41:43.780Z,99241.00
2023-02-19T02:44:12.205Z,99230.00
2023-02-19T02:46:47.110Z,99233.00
2023-02-19T02:49:23.024Z,99221.00
2023-02-19T02:51:56.288Z,99222.00
2023-02-19T02:54:52.127Z,99218.00
2023-02-19T02:57:22.436Z,99220.00
2023-02-19T02:59:55.000Z,99222.00
2023-02-19T03:02:30.101Z,99210.00
2023-02-19T03:05:24.625Z,99203.00
2023-02-19T03:07:59.843Z,99212.00
2023-02-19T03:10:36.414Z,99198.00
2023-02-19T03:13:27.113Z,99199.00
2023-02-19T03:16:16.623Z,99169.00
2023-02-19T03:19:10.811Z,99191.00
2023-02-19T03:21:42.057Z,99193.00
2023-02-19T03:24:30.820Z,99181.00
2023-02-19T03:27:05.279Z,99183.00
2023-02-19T03:29:43.771Z,99159.00
2023-02-19T03:32:18.819Z,99162.00
2023-02-19T03:34:56.244Z,99161.00
2023-02-19T03:37:33.372Z,99155.00
2023-02-19T03:40:02.046Z,99163.00
2023-02-19T03:42:40.666Z,99154.00
2023-02-19T03:45:27.289Z,99148.00
2023-02-19T03:48:27.569Z,99138.00
2023-02-19T03:51:08.850Z,99152.00
2023-02-19T03:53:52.204Z,99136.00
2023-02-19T03:56:30.150Z,99144.00
2023-02-19T03:59:07.883Z,99143.00
2023-02-19T04:01:43.987Z,99131.00
2023-02-19T04:04:20.816Z,99141.00
2023-02-19T04:06:55.184Z,99133.00
2023-02-19T04:09:28.458Z,99122.00
2023-02-19T04:12:04.469Z,99108.00
2023-02-19T04:14:38.902Z,99127.00
2023-02-19T04:17:16.866Z,99132.00
2023-02-19T04:19:46.763Z,99128.00
2023-02-19T04:22:18.247Z,99109.00
2023-02-19T04:24:51.509Z,99126.00
2023-02-19T04:27:20.168Z,99127.00
2023-02-19T04:29:48.222Z,99136.00
2023-02-19T04:32:16.190Z,99122.00
2023-02-19T04:34:44.114Z,99134.00
2023-02-19T04:37:12.313Z,99128.00
2023-02-19T04:39:41.589Z,99134.00
2023-02-19T04:42:11.541Z,99134.00
2023-02-19T04:44:39.378Z,99130.00
2023-02-19T04:47:07.297Z,99140.00
2023-02-19T04:49:35.176Z,99135.00
2023-02-19T04:52:03.036Z,99126.00
2023-02-19T04:54:30.876Z,99130.00
2023-02-19T04:57:00.009Z,99133.00
2023-02-19T04:59:28.006Z,99118.00
2023-02-19T05:01:57.433Z,99118.00
2023-02-19T05:04:26.344Z,99123.00
2023-02-19T05:06:54.403Z,99124.00
2023-02-19T05:09:22.428Z,99140.00
2023-02-19T05:11:50.353Z,99144.00
2023-02-19T05:14:19.477Z,99145.00
2023-02-19T05:16:47.334Z,99151.00
2023-02-19T05:19:15.486Z,99153.00
2023-02-19T05:21:43.344Z,99158.00
2023-02-19T05:24:11.271Z,99154.00
2023-02-19T05:26:39.153Z,99157.00
2023-02-19T05:29:07.076Z,99160.00
2023-02-19T05:31:36.516Z,99167.00
2023-02-19T05:34:04.495Z,99166.00
2023-02-19T05:36:33.191Z,99172.00
2023-02-19T05:39:01.146Z,99167.00
2023-02-19T05:41:31.521Z,99159.00
2023-02-19T05:43:59.771Z,99160.00
2023-02-19T05:46:30.839Z,99166.00
2023-02-19T05:49:00.146Z,99161.00
2023-02-19T05:51:28.804Z,99171.00
2023-02-19T05:53:58.398Z,99177.00
2023-02-19T05:56:32.568Z,99184.00
2023-02-19T05:59:03.750Z,99166.00
2023-02-19T06:01:31.994Z,99184.00
2023-02-19T06:04:01.821Z,99185.00
2023-02-19T06:06:30.014Z,99196.00
2023-02-19T06:08:58.364Z,99191.00
2023-02-19T06:11:26.781Z,99186.00
2023-02-19T06:13:54.622Z,99177.00
2023-02-19T06:16:22.903Z,99195.00
2023-02-19T06:18:51.256Z,99182.00
2023-02-19T06:21:20.706Z,99191.00
2023-02-19T06:23:48.616Z,99203.00
2023-02-19T06:26:19.966Z,99197.00
2023-02-19T06:28:50.627Z,99193.00
2023-02-19T06:31:20.355Z,99192.00
2023-02-19T06:33:50.457Z,99207.00
2023-02-19T06:36:22.392Z,99210.00
2023-02-19T06:38:50.671Z,99213.00
2023-02-19T06:41:18.799Z,99211.00
2023-02-19T06:43:46.808Z,99210.00
2023-02-19T06:46:15.296Z,99206.00
2023-02-19T06:48:45.922Z,99217.00
2023-02-19T06:51:16.076Z,99215.00
2023-02-19T06:53:45.527Z,99220.00
2023-02-19T06:56:26.113Z,99224.00
2023-02-19T06:58:56.058Z,99225.00
2023-02-19T07:01:25.018Z,99235.00
2023-02-19T07:03:53.744Z,99234.00
2023-02-19T07:06:23.722Z,99235.00
2023-02-19T07:08:55.050Z,99234.00
2023-02-19T07:11:23.304Z,99237.00
2023-02-19T07:13:56.463Z,99251.00
2023-02-19T07:16:25.762Z,99248.00
2023-02-19T07:18:54.321Z,99250.00
2023-02-19T07:21:22.217Z,99261.00
2023-02-19T07:23:50.237Z,99322.00
2023-02-19T07:26:21.427Z,99341.00
2023-02-19T07:28:51.683Z,99349.00
2023-02-19T07:31:23.573Z,99360.00
2023-02-19T07:33:52.562Z,99377.00
2023-02-19T07:36:22.874Z,99391.00
2023-02-19T07:38:56.166Z,99379.00
2023-02-19T07:41:26.464Z,99385.00
2023-02-19T07:43:57.808Z,99388.00
2023-02-19T07:46:26.025Z,99399.00
2023-02-19T07:48:54.003Z,99387.00
2023-02-19T07:51:22.662Z,99398.00
2023-02-19T07:53:51.406Z,99406.00
2023-02-19T07:56:20.668Z,99413.00
2023-02-19T07:58:50.492Z,99420.00
2023-02-19T08:01:43.041Z,99416.00
2023-02-19T08:04:13.005Z,99408.00
2023-02-19T08:06:41.697Z,99428.00
2023-02-19T08:09:10.143Z,99438.00
2023-02-19T08:11:55.912Z,99442.00
2023-02-19T08:14:28.134Z,99456.00
2023-02-19T08:16:56.302Z,99454.00
2023-02-19T08:19:24.910Z,99454.00
2023-02-19T08:21:53.531Z,99471.00
2023-02-19T08:24:21.550Z,99489.00
2023-02-19T08:26:49.576Z,99501.00
2023-02-19T08:29:17.506Z,99514.00
2023-02-19T08:31:46.920Z,99530.00
2023-02-19T08:34:14.903Z,99528.00
2023-02-19T08:36:44.104Z,99535.00
2023-02-19T08:39:12.286Z,99543.00
2023-02-19T08:41:40.144Z,99548.00
2023-02-19T08:44:08.015Z,99560.00
2023-02-19T08:46:35.933Z,99571.00
2023-02-19T08:49:05.125Z,99569.00
2023-02-19T08:51:32.966Z,99586.00
2023-02-19T08:54:04.771Z,99582.00
2023-02-19T08:56:32.679Z,99600.00
2023-02-19T08:59:01.603Z,99595.00
2023-02-19T09:01:29.504Z,99619.00
2023-02-19T09:03:57.589Z,99612.00
2023-02-19T09:06:26.969Z,99611.00
2023-02-19T09:08:54.867Z,99625.00
2023-02-19T09:11:22.850Z,99636.00
2023-02-19T09:13:50.725Z,99643.00
2023-02-19T09:16:18.597Z,99654.00
2023-02-19T09:18:46.717Z,99647.00
2023-02-19T09:21:14.809Z,99637.00
2023-02-19T09:23:43.997Z,99670.00
2023-02-19T09:26:13.973Z,99679.00
2023-02-19T09:28:42.377Z,99683.00
2023-02-19T09:31:13.868Z,99684.00
2023-02-19T09:33:44.278Z,99706.00
2023-02-19T09:36:12.982Z,99701.00
2023-02-19T09:38:40.979Z,99709.00
2023-02-19T09:41:21.305Z,99707.00
2023-02-19T09:43:49.449Z,99715.00
2023-02-19T09:46:29.209Z,99705.00
2023-02-19T09:49:05.371Z,99713.00
2023-02-19T09:51:37.590Z,99722.00
2023-02-19T09:54:08.616Z,99721.00
2023-02-19T09:56:37.852Z,99726.00
2023-02-19T09:59:07.831Z,99735.00
2023-02-19T10:01:41.228Z,99746.00
2023-02-19T10:04:11.641Z,99749.00
2023-02-19T10:06:39.482Z,99755.00
2023-02-19T10:09:23.627Z,99755.00
2023-02-19T10:11:56.297Z,99768.00
2023-02-19T10:14:33.650Z,99763.00
2023-02-19T10:17:06.869Z,99766.00
2023-02-19T10:19:35.492Z,99779.00
2023-02-19T10:22:05.008Z,99767.00
2023-02-19T10:24:33.499Z,99779.00
2023-02-19T10:27:02.799Z,99792.00
2023-02-19T10:29:30.678Z,99790.00
2023-02-19T10:32:18.670Z,99793.00
2023-02-19T10:34:46.642Z,99803.00
2023-02-19T10:37:18.750Z,99804.00
2023-02-19T10:39:50.057Z,99807.00
2023-02-19T10:42:23.071Z,99804.00
2023-02-19T10:44:58.398Z,99811.00
2023-02-19T10:47:29.663Z,99820.00
2023-02-19T10:50:03.396Z,99831.00
2023-02-19T10:52:36.191Z,99836.00
2023-02-19T10:55:25.782Z,99829.00
2023-02-19T10:57:55.275Z,99827.00
2023-02-19T11:00:27.447Z,99826.00
2023-02-19T11:03:18.457Z,99845.00
2023-02-19T11:06:00.203Z,99845.00
2023-02-19T11:08:28.520Z,99851.00
2023-02-19T11:10:56.929Z,99849.00
2023-02-19T11:13:37.882Z,99864.00
2023-02-19T11:16:06.785Z,99857.00
2023-02-19T11:18:36.214Z,99853.00
2023-02-19T11:21:07.463Z,99854.00
2023-02-19T11:23:44.475Z,99874.00
2023-02-19T11:26:21.737Z,99869.00
2023-02-19T11:28:59.774Z,99882.00
2023-02-19T11:31:31.708Z,99870.00
2023-02-19T11:34:01.921Z,99881.00
2023-02-19T11:36:33.876Z,99881.00
2023-02-19T11:39:31.678Z,99876.00
2023-02-19T11:42:42.969Z,99874.00
2023-02-19T11:45:29.579Z,99887.00
2023-02-19T11:48:20.217Z,99887.00
2023-02-19T11:51:05.143Z,99887.00
2023-02-19T11:53:37.175Z,99891.00
2023-02-19T11:56:17.570Z,99891.00
2023-02-19T11:59:00.740Z,99891.00
2023-02-19T12:02:21.717Z,99898.00
2023-02-19T12:05:45.987Z,99911.00
2023-02-19T12:09:13.092Z,99916.00
2023-02-19T12:11:59.404Z,99916.00
2023-02-19T12:15:27.686Z,99910.00
2023-02-19T12:18:32.713Z,99915.00
2023-02-19T12:21:21.417Z,99916.00
2023-02-19T12:24:12.551Z,99917.00
2023-02-19T12:27:02.797Z,99913.00
2023-02-19T12:29:58.810Z,99909.00
2023-02-19T12:32:59.667Z,99917.00
2023-02-19T12:35:51.323Z,99929.00
2023-02-19T12:38:27.241Z,99923.00
2023-02-19T12:41:19.203Z,99925.00
2023-02-19T12:43:54.745Z,99921.00
2023-02-19T12:46:32.359Z,99919.00
2023-02-19T12:49:10.749Z,99935.00
2023-02-19T12:51:46.145Z,99930.00
2023-02-19T12:54:23.614Z,99940.00
2023-02-19T12:56:58.317Z,99938.00
2023-02-19T12:59:32.674Z,99942.00
2023-02-19T13:02:12.045Z,99943.00
2023-02-19T13:04:48.737Z,99953.00
2023-02-19T13:07:24.944Z,99964.00
2023-02-19T13:09:59.148Z,99962.00
2023-02-19T13:12:31.505Z,99953.00
2023-02-19T13:15:03.633Z,99968.00
2023-02-19T13:17:41.075Z,99962.00
2023-02-19T13:20:27.301Z,99966.00
2023-02-19T13:23:27.074Z,99962.00
2023-02-19T13:26:15.716Z,99971.00
2023-02-19T13:29:04.218Z,99978.00
2023-02-19T13:31:55.118Z,99980.00
2023-02-19T13:34:48.687Z,99983.00
2023-02-19T13:37:18.101Z,99988.00
2023-02-19T13:39:52.789Z,99983.00
2023-02-19T13:42:27.795Z,99974.00
2023-02-19T13:44:58.579Z,99968.00
2023-02-19T13:47:59.285Z,99963.00
2023-02-19T13:50:30.741Z,99964.00
2023-02-19T13:53:00.481Z,99969.00
2023-02-19T13:55:52.338Z,99975.00
2023-02-19T13:59:02.338Z,99975.00
2023-02-19T14:02:15.861Z,99987.00
2023-02-19T14:04:52.060Z,99972.00
2023-02-19T14:07:56.170Z,99991.00
2023-02-19T14:11:02.359Z,100005.00
2023-02-19T14:14:01.544Z,99996.00
2023-02-19T14:16:53.381Z,100004.00
2023-02-19T14:19:54.197Z,99997.00
2023-02-19T14:23:02.942Z,99979.00
2023-02-19T14:25:49.466Z,100000.00
2023-02-19T14:28:42.053Z,100000.00
2023-02-19T14:31:28.999Z,99998.00
2023-02-19T14:34:00.515Z,100010.00
2023-02-19T14:36:36.710Z,100009.00
2023-02-19T14:39:12.898Z,100009.00
2023-02-19T14:41:45.121Z,100011.00
2023-02-19T14:44:21.377Z,100018.00
2023-02-19T14:46:58.312Z,100012.00
2023-02-19T14:49:34.506Z,100020.00
2023-02-19T14:52:08.333Z,100024.00
2023-02-19T14:54:46.904Z,100020.00
2023-02-19T14:57:21.913Z,100026.00
2023-02-19T14:59:58.263Z,100039.00
2023-02-19T15:02:28.150Z,100033.00
2023-02-19T15:04:57.057Z,100035.00
2023-02-19T15:07:30.943Z,100032.00
2023-02-19T15:10:05.536Z,100035.00
2023-02-19T15:12:43.989Z,100039.00
2023-02-19T15:15:22.844Z,100034.00
2023-02-19T15:17:52.912Z,100028.00
2023-02-19T15:20:25.445Z,100028.00
2023-02-19T15:22:54.593Z,100039.00
2023-02-19T15:25:26.684Z,100042.00
2023-02-19T15:27:54.629Z,100046.00
2023-02-19T15:30:27.486Z,100047.00
2023-02-19T15:32:58.178Z,100042.00
2023-02-19T15:35:28.481Z,100052.00
2023-02-19T15:37:56.776Z,100049.00
2023-02-19T15:40:31.064Z,100042.00
2023-02-19T15:43:00.755Z,100050.00
2023-02-19T15:45:38.336Z,100056.00
2023-02-19T15:48:14.698Z,100048.00
2023-02-19T15:50:48.506Z,100058.00
2023-02-19T15:53:21.169Z,100063.00
2023-02-19T15:55:59.808Z,100057.00
2023-02-19T15:58:33.517Z,100059.00
2023-02-19T16:01:08.193Z,100069.00
2023-02-19T16:03:37.007Z,100060.00
2023-02-19T16:06:11.323Z,100064.00
2023-02-19T16:08:41.817Z,100055.00
2023-02-19T16:11:30.791Z,100051.00
2023-02-19T16:14:24.370Z,100050.00
2023-02-19T16:16:58.952Z,100067.00
2023-02-19T16:19:30.488Z,100069.00
2023-02-19T16:22:00.269Z,100070.00
2023-02-19T16:24:32.152Z,100067.00
2023-02-19T16:27:00.784Z,100084.00
2023-02-19T16:29:32.524Z,100086.00
2023-02-19T16:32:05.428Z,100081.00
2023-02-19T16:34:41.942Z,100079.00
2023-02-19T16:37:33.525Z,100073.00
2023-02-19T16:40:59.603Z,100091.00
2023-02-19T16:43:39.872Z,100099.00
2023-02-19T16:46:12.193Z,100113.00
2023-02-19T16:48:42.341Z,100119.00
2023-02-19T16:51:18.554Z,100127.00
2023-02-19T16:53:46.451Z,100130.00
2023-02-19T16:56:18.544Z,100119.00
2023-02-19T16:58:46.441Z,100131.00
2023-02-19T17:01:15.295Z,100146.00
2023-02-19T17:03:46.966Z,100152.00
2023-02-19T17:06:15.501Z,100150.00
2023-02-19T17:08:44.924Z,100156.00
2023-02-19T17:11:16.844Z,100165.00
2023-02-19T17:13:46.792Z,100173.00
2023-02-19T17:16:20.316Z,100178.00
2023-02-19T17:18:50.385Z,100182.00
2023-02-19T17:21:23.495Z,100174.00
2023-02-19T17:23:52.441Z,100164.00
2023-02-19T17:26:24.453Z,100184.00
2023-02-19T17:28:52.471Z,100181.00
2023-02-19T17:31:20.711Z,100182.00
2023-02-19T17:33:50.185Z,100185.00
2023-02-19T17:36:21.713Z,100195.00
2023-02-19T17:38:49.917Z,100191.00
2023-02-19T17:41:18.058Z,100194.00
2023-02-19T17:43:47.460Z,100197.00
2023-02-19T17:46:16.703Z,100186.00
2023-02-19T17:48:44.784Z,100193.00
2023-02-19T17:51:14.375Z,100185.00
2023-02-19T17:53:42.709Z,100203.00
2023-02-19T17:56:16.310Z,100206.00
2023-02-19T17:58:44.225Z,100213.00
2023-02-19T18:01:12.445Z,100215.00
2023-02-19T18:03:40.730Z,100205.00
2023-02-19T18:06:09.095Z,100209.00
2023-02-19T18:08:38.563Z,100213.00
2023-02-19T18:11:08.697Z,100207.00
2023-02-19T18:13:36.672Z,100216.00
2023-02-19T18:16:06.364Z,100214.00
2023-02-19T18:18:34.240Z,100223.00
2023-02-19T18:21:02.117Z,100228.00
2023-02-19T18:23:29.996Z,100215.00
2023-02-19T18:25:59.363Z,100224.00
2023-02-19T18:28:27.294Z,100226.00
2023-02-19T18:30:55.465Z,100236.00
2023-02-19T18:33:23.569Z,100235.00
2023-02-19T18:35:51.455Z,100245.00
2023-02-19T18:38:19.513Z,100236.00
2023-02-19T18:40:47.552Z,100247.00
2023-02-19T18:43:16.797Z,100252.00
2023-02-19T18:45:46.541Z,100258.00
2023-02-19T18:48:14.475Z,100249.00
2023-02-19T18:50:42.351Z,100256.00
2023-02-19T18:53:10.351Z,100254.00
2023-02-19T18:55:38.226Z,100263.00
2023-02-19T18:58:06.205Z,100251.00
2023-02-19T19:00:36.135Z,100246.00
2023-02-19T19:03:04.082Z,100251.00
2023-02-19T19:05:32.011Z,100251.00
2023-02-19T19:08:01.763Z,100243.00
2023-02-19T19:10:30.636Z,100249.00
2023-02-19T19:12:58.791Z,100247.00
2023-02-19T19:15:27.297Z,100261.00
2023-02-19T19:17:56.543Z,100262.00
2023-02-19T19:20:24.764Z,100266.00
2023-02-19T19:22:54.239Z,100263.00
2023-02-19T19:25:23.620Z,100261.00
2023-02-19T19:27:55.346Z,100263.00
2023-02-19T19:30:24.269Z,100262.00
2023-02-19T19:32:53.861Z,100264.00
2023-02-19T19:35:23.786Z,100274.00
2023-02-19T19:37:51.664Z,100268.00
2023-02-19T19:40:20.518Z,100270.00
2023-02-19T19:42:51.239Z,100264.00
2023-02-19T19:45:19.638Z,100255.00
2023-02-19T19:47:48.709Z,100258.00
2023-02-19T19:50:18.298Z,100247.00
2023-02-19T19:52:47.578Z,100251.00
2023-02-19T19:55:16.123Z,100247.00
2023-02-19T19:57:44.420Z,100254.00
2023-02-19T20:00:17.749Z,100257.00
2023-02-19T20:02:47.177Z,100255.00
2023-02-19T20:05:16.791Z,100258.00
2023-02-19T20:07:45.414Z,100252.00
2023-02-19T20:10:15.964Z,100256.00
2023-02-19T20:12:44.099Z,100243.00
2023-02-19T20:15:12.989Z,100242.00
2023-02-19T20:17:40.974Z,100241.00
2023-02-19T20:20:10.808Z,100230.00
2023-02-19T20:22:39.350Z,100238.00
2023-02-19T20:25:08.075Z,100241.00
2023-02-19T20:27:37.509Z,100212.00
2023-02-19T20:30:09.711Z,100230.00
2023-02-19T20:32:39.131Z,100239.00
2023-02-19T20:35:07.796Z,100246.00
2023-02-19T20:37:38.078Z,100253.00
2023-02-19T20:40:09.065Z,100251.00
2023-02-19T20:42:38.343Z,100249.00
2023-02-19T20:45:07.011Z,100250.00
2023-02-19T20:47:34.915Z,100258.00
2023-02-19T20:50:02.863Z,100255.00
2023-02-19T20:52:30.764Z,100256.00
2023-02-19T20:54:58.622Z,100259.00
2023-02-19T20:57:26.521Z,100262.00
2023-02-19T20:59:55.729Z,100269.00
2023-02-19T21:02:29.028Z,100268.00
2023-02-19T21:04:57.388Z,100259.00
2023-02-19T21:07:26.179Z,100277.00
2023-02-19T21:09:55.007Z,100268.00
2023-02-19T21:12:23.904Z,100288.00
2023-02-19T21:14:52.169Z,100288.00
2023-02-19T21:17:21.372Z,100286.00
2023-02-19T21:19:50.293Z,100288.00
2023-02-19T21:22:18.287Z,100287.00
2023-02-19T21:24:49.498Z,100281.00
2023-02-19T21:27:17.443Z,100280.00
2023-02-19T21:29:45.320Z,100287.00
2023-02-19T21:32:13.380Z,100277.00
2023-02-19T21:34:43.719Z,100288.00
2023-02-19T21:37:11.645Z,100288.00
2023-02-19T21:39:39.730Z,100286.00
2023-02-19T21:42:07.676Z,100291.00
2023-02-19T21:44:35.752Z,100277.00
2023-02-19T21:47:03.622Z,100296.00
2023-02-19T21:49:31.757Z,100294.00
2023-02-19T21:52:01.047Z,100288.00
2023-02-19T21:54:28.934Z,100280.00
2023-02-19T21:56:56.875Z,100266.00
2023-02-19T21:59:24.742Z,100268.00
2023-02-19T22:01:52.658Z,100258.00
2023-02-19T22:04:24.439Z,100270.00
2023-02-19T22:06:56.265Z,100269.00
2023-02-19T22:09:25.769Z,100264.00
2023-02-19T22:11:53.748Z,100281.00
2023-02-19T22:14:21.634Z,100279.00
2023-02-19T22:16:49.552Z,100279.00
2023-02-19T22:19:17.470Z,100283.00
2023-02-19T22:21:46.212Z,100269.00
2023-02-19T22:24:20.910Z,100275.00
2023-02-19T22:26:51.498Z,100263.00
2023-02-19T22:29:20.132Z,100257.00
2023-02-19T22:31:48.497Z,100253.00
2023-02-19T22:34:17.121Z,100250.00
2023-02-19T22:36:45.415Z,100243.00
2023-02-19T22:39:20.756Z,100218.00
2023-02-19T22:41:50.622Z,100255.00
2023-02-19T22:44:19.649Z,100254.00
2023-02-19T22:46:50.277Z,100258.00
2023-02-19T22:49:19.490Z,100264.00
2023-02-19T22:51:54.860Z,100245.00
2023-02-19T22:54:26.728Z,100241.00
2023-02-19T22:56:56.458Z,100265.00
2023-02-19T22:59:24.598Z,100254.00
2023-02-19T23:01:52.676Z,100241.00
2023-02-19T23:04:21.850Z,100217.00
2023-02-19T23:06:50.493Z,100243.00
2023-02-19T23:09:23.740Z,100228.00
2023-02-19T23:11:52.739Z,100228.00
2023-02-19T23:14:24.245Z,100238.00
2023-02-19T23:16:52.185Z,100229.00
2023-02-19T23:19:20.155Z,100216.00
2023-02-19T23:21:48.378Z,100207.00
2023-02-19T23:24:16.956Z,100203.00
2023-02-19T23:26:46.174Z,100211.00
2023-02-19T23:29:17.548Z,100212.00
2023-02-19T23:31:47.528Z,100219.00
2023-02-19T23:34:16.345Z,100201.00
2023-02-19T23:36:46.142Z,100211.00
2023-02-19T23:39:17.216Z,100212.00
2023-02-19T23:41:49.498Z,100217.00
2023-02-19T23:44:17.972Z,100208.00
2023-02-19T23:46:47.876Z,100208.00
2023-02-19T23:49:15.908Z,100209.00
2023-02-19T23:51:43.855Z,100204.00
2023-02-19T23:54:12.616Z,100199.00
2023-02-19T23:56:40.473Z,100205.00
2023-02-19T23:59:08.317Z,100197.00
